createdAt,value
2022-08-21T00:01:51.490Z,19.03
2022-08-21T00:04:20.862Z,18.18
2022-08-21T00:06:48.771Z,19.04
2022-08-21T00:09:15.396Z,19.11
2022-08-21T00:11:42.033Z,18.90
2022-08-21T00:14:09.580Z,17.83
2022-08-21T00:16:36.252Z,19.06
2022-08-21T00:19:03.011Z,19.24
2022-08-21T00:21:29.812Z,18.61
2022-08-21T00:23:56.442Z,19.06
2022-08-21T00:26:23.289Z,19.33
2022-08-21T00:28:50.122Z,19.40
2022-08-21T00:31:24.958Z,19.06
2022-08-21T00:33:51.621Z,19.26
2022-08-21T00:36:18.293Z,18.89
2022-08-21T00:38:44.972Z,19.22
2022-08-21T00:41:36.707Z,19.26
2022-08-21T00:43:58.514Z,19.34
2022-08-21T00:46:28.214Z,18.43
2022-08-21T00:48:58.785Z,19.36
2022-08-21T00:51:29.665Z,18.64
2022-08-21T00:53:58.484Z,19.28
2022-08-21T00:56:25.875Z,19.11
2022-08-21T00:58:54.838Z,18.55
2022-08-21T01:01:22.116Z,19.08
2022-08-21T01:03:49.050Z,18.36
2022-08-21T01:06:16.859Z,19.36
2022-08-21T01:08:46.643Z,18.75
2022-08-21T01:11:14.832Z,19.43
2022-08-21T01:13:47.142Z,19.48
2022-08-21T01:16:16.275Z,19.28
2022-08-21T01:18:42.924Z,18.53
2022-08-21T01:21:28.391Z,19.04
2022-08-21T01:23:55.882Z,19.09
2022-08-21T01:26:34.055Z,19.38
2022-08-21T01:29:13.893Z,19.43
2022-08-21T01:31:40.576Z,18.65
2022-08-21T01:34:07.395Z,19.05
2022-08-21T01:36:34.831Z,18.68
2022-08-21T01:39:01.916Z,19.10
2022-08-21T01:41:28.509Z,19.26
2022-08-21T02:08:25.098Z,18.18
2022-08-21T02:10:52.169Z,18.11
2022-08-21T02:13:18.861Z,18.45
2022-08-21T02:15:45.493Z,18.00
2022-08-21T02:18:12.460Z,18.24
2022-08-21T02:20:42.919Z,18.29
2022-08-21T02:23:11.077Z,17.88
2022-08-21T02:25:37.836Z,17.93
2022-08-21T02:28:06.585Z,17.78
2022-08-21T02:30:35.383Z,17.59
2022-08-21T02:33:02.380Z,17.52
2022-08-21T02:35:29.038Z,17.44
2022-08-21T02:38:03.153Z,16.67
2022-08-21T02:40:31.795Z,17.69
2022-08-21T02:42:59.519Z,17.26
2022-08-21T02:45:26.482Z,17.22
2022-08-21T02:47:56.603Z,17.25
2022-08-21T02:50:26.057Z,16.68
2022-08-21T02:52:55.069Z,17.21
2022-08-21T02:55:23.320Z,17.33
2022-08-21T02:57:50.192Z,17.37
2022-08-21T03:00:16.997Z,17.29
2022-08-21T03:02:43.747Z,17.17
2022-08-21T03:05:11.007Z,17.45
2022-08-21T03:07:38.472Z,17.66
2022-08-21T03:10:05.849Z,17.16
2022-08-21T03:12:32.534Z,17.21
2022-08-21T03:14:59.231Z,17.25
2022-08-21T03:17:29.555Z,17.08
2022-08-21T03:19:57.749Z,17.09
2022-08-21T03:22:24.386Z,17.21
2022-08-21T03:24:51.439Z,17.11
2022-08-21T03:27:18.518Z,16.72
2022-08-21T03:29:46.767Z,16.99
2022-08-21T03:32:13.416Z,16.91
2022-08-21T03:34:40.193Z,17.02
2022-08-21T03:37:07.531Z,16.43
2022-08-21T03:39:34.325Z,17.00
2022-08-21T03:42:01.001Z,17.20
2022-08-21T03:44:30.211Z,17.35
2022-08-21T03:46:57.303Z,16.82
2022-08-21T03:49:25.295Z,17.02
2022-08-21T03:51:58.298Z,17.23
2022-08-21T03:54:26.529Z,17.37
2022-08-21T03:56:55.545Z,17.31
2022-08-21T03:59:22.173Z,17.11
2022-08-21T04:01:56.634Z,17.10
2022-08-21T04:04:23.815Z,17.15
2022-08-21T04:06:50.876Z,17.33
2022-08-21T04:09:18.430Z,16.87
2022-08-21T04:11:46.420Z,17.38
2022-08-21T04:14:13.209Z,17.39
2022-08-21T04:16:40.009Z,17.31
2022-08-21T04:19:06.605Z,17.05
2022-08-21T04:21:33.306Z,17.36
2022-08-21T04:24:00.399Z,17.42
2022-08-21T04:26:27.410Z,17.00
2022-08-21T04:29:01.538Z,17.33
2022-08-21T04:31:29.591Z,17.09
2022-08-21T04:33:57.817Z,17.61
2022-08-21T04:36:24.833Z,17.50
2022-08-21T04:38:52.664Z,17.56
2022-08-21T04:41:27.875Z,17.28
2022-08-21T04:43:56.269Z,17.49
2022-08-21T04:47:06.871Z,17.70
2022-08-21T04:49:34.100Z,17.04
2022-08-21T04:52:00.707Z,17.66
2022-08-21T04:54:27.371Z,17.29
2022-08-21T04:56:56.310Z,17.12
2022-08-21T04:59:25.672Z,16.08
2022-08-21T05:01:52.675Z,17.43
2022-08-21T05:04:20.591Z,17.25
2022-08-21T05:06:48.021Z,17.28
2022-08-21T05:09:16.452Z,17.48
2022-08-21T05:11:43.787Z,17.35
2022-08-21T05:14:12.497Z,17.22
2022-08-21T05:16:39.468Z,17.41
2022-08-21T05:19:06.957Z,16.89
2022-08-21T05:21:37.178Z,17.47
2022-08-21T05:24:03.947Z,17.42
2022-08-21T05:26:30.866Z,17.72
2022-08-21T05:28:57.906Z,16.35
2022-08-21T05:31:24.513Z,17.59
2022-08-21T05:33:52.095Z,17.46
2022-08-21T05:36:19.394Z,17.11
2022-08-21T05:38:46.011Z,17.42
2022-08-21T05:41:12.842Z,17.56
2022-08-21T05:43:39.572Z,17.63
2022-08-21T05:46:06.929Z,16.31
2022-08-21T05:48:33.777Z,17.93
2022-08-21T05:51:14.273Z,17.28
2022-08-21T05:53:43.124Z,17.59
2022-08-21T05:56:10.356Z,17.67
2022-08-21T05:58:37.166Z,17.56
2022-08-21T06:01:04.025Z,17.91
2022-08-21T06:03:32.562Z,17.71
2022-08-21T06:05:59.529Z,16.42
2022-08-21T06:08:26.249Z,17.49
2022-08-21T06:10:53.225Z,17.66
2022-08-21T06:13:20.199Z,17.49
2022-08-21T06:15:47.055Z,17.87
2022-08-21T06:18:13.693Z,17.64
2022-08-21T06:20:40.505Z,17.46
2022-08-21T06:23:07.231Z,18.02
2022-08-21T06:25:33.845Z,17.94
2022-08-21T06:28:10.891Z,17.86
2022-08-21T06:30:38.129Z,18.02
2022-08-21T06:33:04.843Z,16.92
2022-08-21T06:35:31.493Z,18.13
2022-08-21T06:37:58.541Z,18.22
2022-08-21T06:40:26.008Z,18.12
2022-08-21T06:42:52.797Z,17.92
2022-08-21T06:45:19.405Z,18.28
2022-08-21T06:47:46.025Z,18.07
2022-08-21T06:50:13.664Z,18.35
2022-08-21T06:52:40.760Z,18.73
2022-08-21T06:55:08.980Z,18.70
2022-08-21T06:57:35.822Z,18.86
2022-08-21T07:00:06.511Z,18.94
2022-08-21T07:02:34.630Z,18.95
2022-08-21T07:05:01.394Z,19.12
2022-08-21T07:07:28.044Z,18.99
2022-08-21T07:09:54.696Z,19.13
2022-08-21T07:12:21.329Z,19.06
2022-08-21T07:14:48.342Z,19.61
2022-08-21T07:17:15.020Z,19.53
2022-08-21T07:19:41.703Z,19.43
2022-08-21T07:22:08.340Z,19.19
2022-08-21T07:24:34.999Z,19.40
2022-08-21T07:27:01.643Z,19.69
2022-08-21T07:29:28.293Z,19.46
2022-08-21T07:31:54.917Z,18.52
2022-08-21T07:34:21.574Z,19.62
2022-08-21T07:36:48.276Z,19.65
2022-08-21T07:39:16.105Z,19.78
2022-08-21T07:41:42.736Z,19.63
2022-08-21T07:44:09.497Z,19.63
2022-08-21T07:46:39.373Z,19.52
2022-08-21T07:49:06.070Z,19.29
2022-08-21T07:51:32.763Z,19.74
2022-08-21T07:54:02.821Z,19.56
2022-08-21T07:56:29.513Z,19.70
2022-08-21T07:58:57.431Z,19.55
2022-08-21T08:01:24.700Z,19.18
2022-08-21T08:03:51.732Z,19.24
2022-08-21T08:06:19.722Z,18.97
2022-08-21T08:08:46.425Z,19.11
2022-08-21T08:11:13.404Z,19.35
2022-08-21T08:13:41.302Z,19.34
2022-08-21T08:16:08.115Z,18.87
2022-08-21T08:18:34.734Z,18.93
2022-08-21T08:21:01.394Z,19.18
2022-08-21T08:23:28.609Z,19.00
2022-08-21T08:26:11.057Z,17.41
2022-08-21T08:28:37.906Z,18.88
2022-08-21T08:31:05.001Z,18.17
2022-08-21T08:33:31.842Z,17.66
2022-08-21T08:36:01.358Z,16.51
2022-08-21T08:38:34.683Z,18.27
2022-08-21T08:41:15.310Z,18.29
2022-08-21T08:44:03.968Z,17.37
2022-08-21T08:47:23.164Z,16.69
2022-08-21T08:50:06.356Z,19.01
2022-08-21T08:53:06.237Z,19.00
2022-08-21T08:55:38.767Z,16.75
2022-08-21T08:58:05.391Z,18.13
2022-08-21T09:00:32.658Z,18.60
2022-08-21T09:03:01.242Z,18.44
2022-08-21T09:05:45.921Z,18.31
2022-08-21T09:08:18.931Z,18.65
2022-08-21T09:10:54.578Z,18.62
2022-08-21T09:13:37.906Z,18.54
2022-08-21T09:16:20.679Z,18.26
2022-08-21T09:19:00.445Z,18.59
2022-08-21T09:21:39.886Z,18.58
2022-08-21T09:24:43.556Z,17.90
2022-08-21T09:27:12.771Z,17.89
2022-08-21T09:29:41.517Z,18.29
2022-08-21T09:32:23.644Z,18.01
2022-08-21T09:35:23.741Z,18.15
2022-08-21T09:38:04.148Z,18.45
2022-08-21T09:40:36.981Z,18.49
2022-08-21T09:43:12.767Z,18.43
2022-08-21T09:45:40.267Z,18.10
2022-08-21T09:48:14.048Z,17.80
2022-08-21T09:50:41.228Z,18.06
2022-08-21T09:53:24.907Z,18.37
2022-08-21T09:56:15.870Z,18.01
2022-08-21T09:58:43.764Z,18.16
2022-08-21T10:01:18.564Z,18.09
2022-08-21T10:03:46.288Z,17.98
2022-08-21T10:06:25.839Z,17.81
2022-08-21T10:08:52.764Z,18.16
2022-08-21T10:11:19.926Z,18.06
2022-08-21T10:13:52.486Z,18.27
2022-08-21T10:16:24.973Z,18.27
2022-08-21T10:19:03.831Z,18.28
2022-08-21T10:21:36.481Z,18.33
2022-08-21T10:24:09.622Z,18.34
2022-08-21T10:26:48.840Z,17.53
2022-08-21T10:29:57.741Z,18.35
2022-08-21T10:32:45.621Z,18.31
2022-08-21T10:35:25.908Z,17.99
2022-08-21T10:37:58.641Z,18.34
2022-08-21T10:40:43.361Z,18.35
2022-08-21T10:43:11.027Z,18.32
2022-08-21T10:45:48.214Z,17.96
2022-08-21T10:48:38.725Z,17.81
2022-08-21T10:51:29.636Z,18.08
2022-08-21T10:53:56.315Z,17.95
2022-08-21T10:56:28.297Z,17.26
2022-08-21T10:59:04.253Z,17.81
2022-08-21T11:01:53.856Z,17.22
2022-08-21T11:04:20.487Z,17.72
2022-08-21T11:06:49.491Z,17.28
2022-08-21T11:09:18.623Z,16.48
2022-08-21T11:11:59.262Z,17.29
2022-08-21T11:14:43.244Z,17.59
2022-08-21T11:17:21.786Z,17.37
2022-08-21T11:19:59.603Z,17.53
2022-08-21T11:22:44.438Z,17.49
2022-08-21T11:25:17.110Z,17.48
2022-08-21T11:27:53.304Z,16.94
2022-08-21T11:30:24.867Z,17.29
2022-08-21T11:32:51.554Z,17.49
2022-08-21T11:35:39.924Z,17.47
2022-08-21T11:38:31.134Z,16.94
2022-08-21T11:41:35.418Z,17.39
2022-08-21T11:44:01.922Z,17.33
2022-08-21T11:47:01.931Z,16.05
2022-08-21T11:49:40.354Z,17.04
2022-08-21T11:52:18.602Z,17.17
2022-08-21T11:54:55.179Z,16.73
2022-08-21T11:57:27.049Z,16.84
2022-08-21T12:00:04.655Z,16.00
2022-08-21T12:02:35.264Z,16.95
2022-08-21T12:05:08.372Z,16.68
2022-08-21T12:07:43.552Z,16.90
2022-08-21T12:10:13.517Z,15.18
2022-08-21T12:12:41.374Z,16.66
2022-08-21T12:15:18.915Z,16.76
2022-08-21T12:17:54.706Z,15.25
2022-08-21T12:20:21.276Z,16.69
2022-08-21T12:22:54.417Z,16.36
2022-08-21T12:25:22.158Z,16.20
2022-08-21T12:27:51.719Z,16.46
2022-08-21T12:30:27.648Z,16.63
2022-08-21T12:33:29.683Z,16.63
2022-08-21T12:36:12.048Z,16.24
2022-08-21T12:39:09.713Z,16.64
2022-08-21T12:41:47.154Z,16.03
2022-08-21T12:44:27.630Z,16.22
2022-08-21T12:46:58.987Z,16.30
2022-08-21T12:49:30.096Z,16.61
2022-08-21T12:52:07.332Z,16.38
2022-08-21T12:54:40.318Z,16.24
2022-08-21T12:57:07.613Z,16.32
2022-08-21T12:59:37.775Z,16.64
2022-08-21T13:02:04.773Z,15.98
2022-08-21T13:04:39.992Z,16.04
2022-08-21T13:07:08.492Z,16.30
2022-08-21T13:09:35.184Z,15.76
2022-08-21T13:12:01.854Z,15.86
2022-08-21T13:14:45.107Z,16.30
2022-08-21T13:17:12.829Z,16.25
2022-08-21T13:19:39.669Z,15.84
2022-08-21T13:22:34.267Z,16.07
2022-08-21T13:25:00.013Z,15.95
2022-08-21T13:27:32.581Z,15.99
2022-08-21T13:30:23.114Z,16.25
2022-08-21T13:32:52.701Z,15.70
2022-08-21T13:35:35.929Z,15.56
2022-08-21T13:38:03.273Z,15.74
2022-08-21T13:40:33.046Z,14.75
2022-08-21T13:42:59.946Z,15.67
2022-08-21T13:45:36.792Z,15.82
2022-08-21T13:48:06.471Z,16.03
2022-08-21T13:50:41.816Z,15.49
2022-08-21T13:53:19.549Z,15.56
2022-08-21T13:55:46.230Z,15.45
2022-08-21T13:58:12.842Z,15.44
2022-08-21T14:01:00.099Z,15.89
2022-08-21T14:03:42.998Z,15.73
2022-08-21T14:06:14.793Z,15.71
2022-08-21T14:08:42.274Z,15.26
2022-08-21T14:11:12.094Z,15.44
2022-08-21T14:13:38.724Z,15.78
2022-08-21T14:16:12.053Z,13.99
2022-08-21T14:18:53.955Z,14.98
2022-08-21T14:21:37.993Z,15.44
2022-08-21T14:24:14.773Z,15.47
2022-08-21T14:26:53.267Z,13.92
2022-08-21T14:29:20.621Z,15.41
2022-08-21T14:31:54.945Z,14.63
2022-08-21T14:34:21.961Z,15.45
2022-08-21T14:36:49.364Z,15.18
2022-08-21T14:39:16.084Z,15.68
2022-08-21T14:41:44.010Z,15.25
2022-08-21T14:44:10.651Z,15.26
2022-08-21T14:46:45.855Z,13.95
2022-08-21T14:49:24.015Z,15.19
2022-08-21T14:51:56.394Z,15.29
2022-08-21T14:54:31.086Z,15.19
2022-08-21T14:57:09.741Z,15.34
2022-08-21T14:59:36.678Z,14.95
2022-08-21T15:02:05.241Z,14.60
2022-08-21T15:04:32.136Z,15.59
2022-08-21T15:06:58.878Z,14.99
2022-08-21T15:09:25.506Z,15.36
2022-08-21T15:11:57.472Z,14.36
2022-08-21T15:14:29.845Z,15.34
2022-08-21T15:16:56.562Z,15.41
2022-08-21T15:19:23.253Z,15.15
2022-08-21T15:21:49.925Z,15.47
2022-08-21T15:24:16.898Z,15.37
2022-08-21T15:26:43.779Z,15.56
2022-08-21T15:29:10.647Z,15.19
2022-08-21T15:31:37.460Z,15.15
2022-08-21T15:34:04.120Z,14.90
2022-08-21T15:36:30.754Z,14.96
2022-08-21T15:38:57.371Z,14.97
2022-08-21T15:41:24.081Z,14.61
2022-08-21T15:43:51.826Z,15.33
2022-08-21T15:46:19.119Z,15.33
2022-08-21T15:48:47.186Z,15.14
2022-08-21T15:51:14.172Z,14.30
2022-08-21T15:53:41.329Z,14.88
2022-08-21T15:56:15.530Z,14.34
2022-08-21T15:58:42.114Z,15.00
2022-08-21T16:01:08.835Z,14.93
2022-08-21T16:03:35.553Z,14.69
2022-08-21T16:06:02.173Z,14.52
2022-08-21T16:08:29.016Z,15.21
2022-08-21T16:10:55.640Z,13.70
2022-08-21T16:13:25.862Z,14.49
2022-08-21T16:15:52.604Z,14.73
2022-08-21T16:18:19.571Z,14.89
2022-08-21T16:20:46.244Z,14.69
2022-08-21T16:23:13.000Z,15.14
2022-08-21T16:25:40.035Z,15.25
2022-08-21T16:28:08.566Z,15.13
2022-08-21T16:30:37.087Z,14.95
2022-08-21T16:33:04.274Z,14.42
2022-08-21T16:35:31.450Z,14.92
2022-08-21T16:37:58.339Z,15.18
2022-08-21T16:40:27.266Z,13.21
2022-08-21T16:42:54.036Z,14.68
2022-08-21T16:45:21.459Z,15.04
2022-08-21T16:47:48.150Z,14.13
2022-08-21T16:50:17.490Z,14.55
2022-08-21T16:53:02.014Z,15.02
2022-08-21T16:55:35.891Z,15.05
2022-08-21T16:58:04.335Z,15.07
2022-08-21T17:00:31.009Z,14.73
2022-08-21T17:02:57.826Z,14.62
2022-08-21T17:05:24.634Z,14.67
2022-08-21T17:07:51.310Z,14.55
2022-08-21T17:10:19.216Z,14.76
2022-08-21T17:12:57.636Z,12.63
2022-08-21T17:15:27.810Z,14.61
2022-08-21T17:17:56.427Z,14.34
2022-08-21T17:20:23.206Z,14.76
2022-08-21T17:22:50.057Z,14.68
2022-08-21T17:25:16.853Z,14.43
2022-08-21T17:27:44.236Z,14.30
2022-08-21T17:30:11.686Z,14.30
2022-08-21T17:32:38.405Z,14.70
2022-08-21T17:35:05.701Z,14.66
2022-08-21T17:37:32.464Z,14.01
2022-08-21T17:39:59.559Z,12.90
2022-08-21T17:42:27.325Z,14.58
2022-08-21T17:44:56.405Z,14.56
2022-08-21T17:47:23.312Z,14.33
2022-08-21T17:49:49.949Z,15.00
2022-08-21T17:52:16.544Z,14.84
2022-08-21T17:54:43.245Z,14.72
2022-08-21T17:57:22.762Z,14.65
2022-08-21T17:59:49.628Z,13.70
2022-08-21T18:02:20.090Z,15.00
2022-08-21T18:04:47.109Z,14.45
2022-08-21T18:07:32.081Z,14.59
2022-08-21T18:10:01.211Z,13.98
2022-08-21T18:12:28.584Z,14.90
2022-08-21T18:14:55.262Z,14.56
2022-08-21T18:17:22.400Z,13.97
2022-08-21T18:19:49.466Z,13.66
2022-08-21T18:22:16.360Z,14.87
2022-08-21T18:24:43.910Z,14.66
2022-08-21T18:27:10.649Z,14.67
2022-08-21T18:29:43.751Z,14.75
2022-08-21T18:32:29.671Z,14.41
2022-08-21T18:34:59.143Z,14.64
2022-08-21T18:37:25.884Z,13.47
2022-08-21T18:39:52.659Z,14.75
2022-08-21T18:42:19.360Z,14.88
2022-08-21T18:44:50.518Z,13.34
2022-08-21T18:47:23.365Z,14.56
2022-08-21T18:49:50.219Z,14.11
2022-08-21T18:52:20.375Z,13.41
2022-08-21T18:54:49.546Z,13.76
2022-08-21T18:57:16.546Z,14.45
2022-08-21T18:59:45.661Z,15.00
2022-08-21T19:02:12.649Z,14.61
2022-08-21T19:04:44.726Z,14.41
2022-08-21T19:07:13.951Z,14.62
2022-08-21T19:09:41.693Z,14.68
2022-08-21T19:12:12.695Z,15.05
2022-08-21T19:14:41.115Z,14.53
2022-08-21T19:17:08.401Z,14.57
2022-08-21T19:19:36.279Z,14.85
2022-08-21T19:22:06.150Z,14.84
2022-08-21T19:24:39.103Z,15.03
2022-08-21T19:27:05.851Z,14.92
2022-08-21T19:29:35.058Z,14.66
2022-08-21T19:32:04.234Z,14.19
2022-08-21T19:34:31.125Z,13.58
2022-08-21T19:36:58.188Z,14.58
2022-08-21T19:39:24.901Z,14.59
2022-08-21T19:41:56.385Z,15.08
2022-08-21T19:44:26.105Z,14.02
2022-08-21T19:46:53.105Z,14.77
2022-08-21T19:49:22.136Z,14.77
2022-08-21T19:51:49.018Z,14.79
2022-08-21T19:54:27.038Z,15.00
2022-08-21T19:56:55.159Z,14.59
2022-08-21T19:59:24.669Z,14.52
2022-08-21T20:01:51.763Z,14.70
2022-08-21T20:04:19.392Z,13.73
2022-08-21T20:06:46.461Z,15.20
2022-08-21T20:09:23.110Z,14.31
2022-08-21T20:11:57.751Z,15.20
2022-08-21T20:14:31.516Z,15.20
2022-08-21T20:17:00.923Z,14.03
2022-08-21T20:19:45.207Z,15.26
2022-08-21T20:22:12.277Z,15.03
2022-08-21T20:24:39.712Z,14.60
2022-08-21T20:27:08.231Z,14.38
2022-08-21T20:29:39.222Z,15.06
2022-08-21T20:32:08.009Z,14.66
2022-08-21T20:34:39.274Z,14.97
2022-08-21T20:37:06.177Z,14.36
2022-08-21T20:39:32.953Z,15.01
2022-08-21T20:41:59.916Z,15.02
2022-08-21T20:44:29.582Z,14.51
2022-08-21T20:46:57.882Z,14.76
2022-08-21T20:49:27.172Z,15.39
2022-08-21T20:51:54.202Z,14.84
2022-08-21T20:54:25.934Z,15.21
2022-08-21T20:57:13.640Z,15.44
2022-08-21T21:00:01.799Z,14.87
2022-08-21T21:02:56.218Z,15.51
2022-08-21T21:05:22.827Z,15.50
2022-08-21T21:08:14.752Z,15.45
2022-08-21T21:10:56.754Z,15.44
2022-08-21T21:13:34.572Z,14.10
2022-08-21T21:16:12.802Z,13.87
2022-08-21T21:18:41.506Z,15.15
2022-08-21T21:21:18.515Z,15.31
2022-08-21T21:23:46.945Z,15.37
2022-08-21T21:26:36.621Z,14.23
2022-08-21T21:29:10.636Z,15.46
2022-08-21T21:31:37.502Z,15.16
2022-08-21T21:34:04.142Z,14.91
2022-08-21T21:36:43.866Z,15.44
2022-08-21T21:39:36.073Z,15.43
2022-08-21T21:42:37.269Z,15.37
2022-08-21T21:45:09.511Z,15.10
2022-08-21T21:48:03.719Z,15.51
2022-08-21T21:50:49.806Z,15.51
2022-08-21T21:53:35.631Z,15.52
2022-08-21T21:56:27.512Z,15.52
2022-08-21T21:59:17.599Z,14.82
2022-08-21T22:02:24.193Z,14.46
2022-08-21T22:05:18.349Z,15.45
2022-08-21T22:07:52.469Z,14.91
2022-08-21T22:10:54.143Z,14.70
2022-08-21T22:13:26.641Z,15.48
2022-08-21T22:15:54.491Z,14.92
2022-08-21T22:18:23.397Z,15.24
2022-08-21T22:21:09.922Z,14.09
2022-08-21T22:23:40.185Z,15.54
2022-08-21T22:26:15.078Z,15.12
2022-08-21T22:28:43.091Z,14.99
2022-08-21T22:31:18.850Z,15.55
2022-08-21T22:34:06.543Z,15.53
2022-08-21T22:36:50.187Z,14.97
2022-08-21T22:39:38.607Z,15.53
2022-08-21T22:42:20.849Z,15.42
2022-08-21T22:44:58.218Z,15.28
2022-08-21T22:47:43.426Z,14.50
2022-08-21T22:50:25.628Z,15.58
2022-08-21T22:53:00.541Z,15.42
2022-08-21T22:55:38.843Z,14.67
2022-08-21T22:58:10.290Z,15.37
2022-08-21T23:00:48.752Z,15.56
2022-08-21T23:03:44.782Z,15.55
2022-08-21T23:06:35.015Z,15.28
2022-08-21T23:09:01.803Z,14.93
2022-08-21T23:11:39.935Z,15.38
2022-08-21T23:14:06.845Z,14.84
2022-08-21T23:16:47.234Z,15.48
2022-08-21T23:19:17.515Z,15.45
2022-08-21T23:21:47.185Z,15.46
2022-08-21T23:24:32.072Z,15.43
2022-08-21T23:27:23.585Z,15.42
2022-08-21T23:30:12.432Z,15.13
2022-08-21T23:33:04.489Z,15.38
2022-08-21T23:36:06.554Z,15.23
2022-08-21T23:38:34.875Z,15.31
2022-08-21T23:41:35.869Z,15.04
2022-08-21T23:44:30.229Z,14.97
2022-08-21T23:47:06.884Z,15.04
2022-08-21T23:49:44.139Z,14.55
2022-08-21T23:52:44.085Z,15.04
2022-08-21T23:55:21.043Z,15.19
2022-08-21T23:58:00.624Z,15.17
